createdAt,value
2023-01-19T00:00:39.901Z,13.98
2023-01-19T00:03:06.537Z,11.15
2023-01-19T00:05:33.780Z,13.55
2023-01-19T00:08:14.710Z,11.88
2023-01-19T00:10:43.624Z,14.25
2023-01-19T00:13:09.949Z,13.57
2023-01-19T00:15:36.452Z,15.00
2023-01-19T00:18:02.853Z,16.75
2023-01-19T00:20:31.916Z,14.40
2023-01-19T00:22:59.062Z,13.80
2023-01-19T00:25:25.661Z,14.23
2023-01-19T00:27:51.991Z,13.93
2023-01-19T00:30:18.373Z,12.32
2023-01-19T00:32:44.795Z,16.00
2023-01-19T00:35:11.111Z,16.10
2023-01-19T00:37:37.557Z,15.68
2023-01-19T00:40:04.267Z,14.50
2023-01-19T00:42:44.613Z,16.77
2023-01-19T00:45:14.476Z,17.63
2023-01-19T00:47:40.860Z,15.90
2023-01-19T00:50:09.087Z,15.60
2023-01-19T00:52:35.424Z,14.00
2023-01-19T00:55:01.760Z,15.23
2023-01-19T00:57:29.559Z,16.83
2023-01-19T00:59:55.879Z,16.23
2023-01-19T01:02:22.354Z,15.52
2023-01-19T01:04:48.996Z,16.90
2023-01-19T01:07:15.309Z,21.50
2023-01-19T01:09:41.672Z,19.75
2023-01-19T01:12:08.059Z,16.63
2023-01-19T01:14:34.374Z,15.10
2023-01-19T01:17:00.860Z,14.73
2023-01-19T01:19:27.407Z,14.02
2023-01-19T01:21:54.107Z,20.20
2023-01-19T01:24:20.725Z,20.30
2023-01-19T01:26:47.085Z,17.50
2023-01-19T01:29:13.486Z,20.00
2023-01-19T01:31:40.145Z,17.45
2023-01-19T01:34:06.545Z,18.60
2023-01-19T01:36:33.442Z,17.48
2023-01-19T01:39:00.333Z,17.02
2023-01-19T01:41:27.433Z,17.73
2023-01-19T01:43:59.922Z,15.90
2023-01-19T01:46:28.212Z,18.15
2023-01-19T01:49:16.260Z,16.00
2023-01-19T01:51:48.199Z,17.45
2023-01-19T01:54:19.900Z,20.55
2023-01-19T01:56:51.818Z,16.52
2023-01-19T01:59:38.953Z,18.27
2023-01-19T02:02:28.447Z,16.48
2023-01-19T02:05:00.743Z,18.42
2023-01-19T02:07:56.601Z,17.90
2023-01-19T02:10:41.925Z,17.45
2023-01-19T02:13:20.808Z,16.60
2023-01-19T02:15:53.165Z,16.65
2023-01-19T02:18:22.368Z,17.42
2023-01-19T02:21:12.851Z,16.52
2023-01-19T02:23:44.080Z,18.25
2023-01-19T02:26:13.914Z,17.92
2023-01-19T02:28:46.437Z,20.48
2023-01-19T02:31:13.042Z,20.67
2023-01-19T02:33:39.387Z,16.63
2023-01-19T02:36:08.168Z,20.13
2023-01-19T02:38:35.840Z,17.05
2023-01-19T02:41:04.572Z,19.35
2023-01-19T02:43:32.081Z,21.67
2023-01-19T02:45:58.863Z,19.85
2023-01-19T02:48:25.312Z,19.20
2023-01-19T02:50:57.359Z,20.48
2023-01-19T02:53:32.735Z,19.50
2023-01-19T02:56:28.504Z,22.67
2023-01-19T02:58:58.877Z,16.03
2023-01-19T03:01:44.002Z,19.08
2023-01-19T03:04:24.991Z,20.27
2023-01-19T03:07:14.296Z,16.80
2023-01-19T03:09:58.069Z,20.83
2023-01-19T03:12:35.623Z,21.40
2023-01-19T03:15:13.436Z,22.63
2023-01-19T03:17:42.728Z,19.13
2023-01-19T03:20:13.601Z,22.08
2023-01-19T03:22:40.820Z,18.60
2023-01-19T03:25:08.814Z,22.92
2023-01-19T03:27:41.077Z,20.52
2023-01-19T03:30:20.027Z,19.17
2023-01-19T03:32:59.054Z,20.15
2023-01-19T03:35:31.555Z,21.25
2023-01-19T03:38:00.207Z,18.67
2023-01-19T03:40:29.310Z,20.23
2023-01-19T03:42:56.443Z,19.27
2023-01-19T03:45:23.541Z,22.65
2023-01-19T03:47:50.379Z,21.85
2023-01-19T03:50:29.555Z,19.55
2023-01-19T03:53:06.792Z,20.58
2023-01-19T03:55:34.802Z,18.95
2023-01-19T03:58:01.163Z,18.55
2023-01-19T04:00:27.556Z,18.98
2023-01-19T04:02:53.943Z,20.73
2023-01-19T04:05:20.348Z,19.67
2023-01-19T04:07:50.712Z,20.45
2023-01-19T04:10:18.558Z,20.77
2023-01-19T04:12:45.503Z,19.20
2023-01-19T04:15:12.306Z,18.35
2023-01-19T04:17:39.519Z,18.63
2023-01-19T04:20:07.726Z,19.15
2023-01-19T04:22:35.372Z,21.05
2023-01-19T04:25:01.715Z,21.50
2023-01-19T04:27:28.731Z,20.33
2023-01-19T04:29:55.068Z,19.38
2023-01-19T04:32:21.499Z,19.15
2023-01-19T04:34:48.108Z,18.40
2023-01-19T04:37:14.460Z,21.42
2023-01-19T04:39:40.853Z,18.75
2023-01-19T04:42:07.547Z,20.58
2023-01-19T04:44:34.037Z,18.63
2023-01-19T04:47:01.486Z,19.30
2023-01-19T04:49:27.847Z,20.55
2023-01-19T04:51:54.476Z,20.15
2023-01-19T04:54:21.674Z,17.13
2023-01-19T04:56:48.159Z,17.08
2023-01-19T04:59:14.544Z,19.48
2023-01-19T05:01:40.950Z,19.33
2023-01-19T05:04:08.380Z,21.63
2023-01-19T05:06:35.032Z,19.02
2023-01-19T05:09:01.464Z,19.23
2023-01-19T05:11:27.785Z,18.67
2023-01-19T05:13:54.202Z,18.15
2023-01-19T05:16:20.658Z,16.20
2023-01-19T05:18:47.064Z,16.38
2023-01-19T05:21:13.432Z,17.60
2023-01-19T05:23:39.781Z,18.83
2023-01-19T05:26:06.288Z,15.95
2023-01-19T05:28:33.435Z,17.08
2023-01-19T05:30:59.917Z,16.48
2023-01-19T05:33:26.331Z,15.57
2023-01-19T05:35:53.888Z,15.45
2023-01-19T05:38:34.244Z,14.18
2023-01-19T05:41:01.608Z,13.48
2023-01-19T05:43:28.005Z,11.80
2023-01-19T05:45:54.355Z,13.55
2023-01-19T05:48:20.715Z,12.02
2023-01-19T05:50:49.361Z,13.60
2023-01-19T05:53:16.464Z,12.15
2023-01-19T05:55:42.996Z,11.45
2023-01-19T05:58:09.329Z,11.98
2023-01-19T06:00:35.686Z,10.40
2023-01-19T06:03:02.528Z,10.85
2023-01-19T06:05:29.687Z,11.45
2023-01-19T06:07:57.038Z,11.20
2023-01-19T06:10:23.518Z,9.55
2023-01-19T06:12:50.102Z,9.85
2023-01-19T06:15:16.810Z,9.00
2023-01-19T06:17:43.160Z,9.70
2023-01-19T06:20:10.434Z,8.65
2023-01-19T06:22:36.904Z,10.20
2023-01-19T06:25:03.370Z,9.43
2023-01-19T06:27:29.929Z,9.40
2023-01-19T06:29:56.295Z,9.40
2023-01-19T06:32:22.760Z,9.43
2023-01-19T06:34:49.086Z,9.32
2023-01-19T06:37:16.664Z,10.18
2023-01-19T06:39:45.134Z,8.80
2023-01-19T06:42:11.552Z,9.35
2023-01-19T06:44:38.036Z,9.00
2023-01-19T06:47:15.580Z,10.82
2023-01-19T06:49:42.472Z,7.35
2023-01-19T06:52:15.713Z,8.25
2023-01-19T06:54:43.343Z,9.10
2023-01-19T06:57:11.989Z,6.53
2023-01-19T06:59:38.779Z,9.55
2023-01-19T07:02:27.212Z,7.20
2023-01-19T07:04:51.795Z,6.90
2023-01-19T07:07:18.281Z,9.20
2023-01-19T07:09:44.612Z,8.20
2023-01-19T07:12:10.972Z,7.53
2023-01-19T07:14:37.361Z,7.13
2023-01-19T07:17:07.456Z,7.55
2023-01-19T07:19:35.173Z,6.65
2023-01-19T07:22:02.282Z,5.97
2023-01-19T07:24:30.524Z,6.78
2023-01-19T07:26:56.891Z,6.25
2023-01-19T07:29:23.247Z,6.25
2023-01-19T07:31:50.108Z,6.53
2023-01-19T07:34:16.866Z,6.30
2023-01-19T07:36:43.999Z,5.95
2023-01-19T07:39:10.338Z,7.35
2023-01-19T07:41:36.696Z,5.28
2023-01-19T07:44:03.315Z,5.53
2023-01-19T07:46:29.743Z,5.25
2023-01-19T07:48:56.311Z,5.65
2023-01-19T07:51:23.012Z,5.20
2023-01-19T07:53:50.408Z,5.63
2023-01-19T07:56:16.835Z,5.18
2023-01-19T07:58:43.588Z,5.35
2023-01-19T08:01:13.531Z,5.18
2023-01-19T08:03:40.060Z,9.65
2023-01-19T08:06:06.883Z,7.10
2023-01-19T08:08:33.909Z,6.75
2023-01-19T08:11:00.435Z,8.02
2023-01-19T08:13:26.892Z,6.50
2023-01-19T08:15:54.062Z,6.45
2023-01-19T08:18:21.276Z,5.30
2023-01-19T08:20:47.709Z,7.95
2023-01-19T08:23:14.238Z,6.13
2023-01-19T08:25:44.304Z,14.55
2023-01-19T08:28:13.391Z,7.32
2023-01-19T08:30:44.578Z,7.93
2023-01-19T08:33:12.582Z,8.15
2023-01-19T08:35:43.411Z,7.63
2023-01-19T08:38:10.375Z,10.43
2023-01-19T08:40:38.999Z,11.73
2023-01-19T08:43:07.955Z,8.10
2023-01-19T08:45:41.353Z,6.80
2023-01-19T08:48:08.109Z,9.48
2023-01-19T08:50:34.737Z,8.10
2023-01-19T08:53:03.406Z,6.15
2023-01-19T08:55:30.368Z,8.93
2023-01-19T08:58:00.000Z,8.13
2023-01-19T09:00:27.169Z,7.80
2023-01-19T09:02:54.286Z,10.18
2023-01-19T09:05:20.916Z,7.32
2023-01-19T09:07:48.197Z,11.15
2023-01-19T09:10:15.956Z,10.95
2023-01-19T09:12:43.882Z,9.20
2023-01-19T09:15:13.719Z,7.95
2023-01-19T09:17:42.140Z,6.95
2023-01-19T09:20:09.234Z,7.93
2023-01-19T09:22:35.690Z,12.75
2023-01-19T09:25:02.533Z,10.27
2023-01-19T09:27:28.864Z,8.73
2023-01-19T09:29:55.198Z,9.20
2023-01-19T09:32:24.300Z,9.90
2023-01-19T09:34:51.022Z,9.30
2023-01-19T09:37:17.505Z,8.40
2023-01-19T09:39:43.878Z,10.73
2023-01-19T09:42:35.195Z,9.77
2023-01-19T09:45:05.791Z,10.38
2023-01-19T09:47:35.551Z,9.38
2023-01-19T09:50:06.717Z,8.02
2023-01-19T09:52:39.473Z,7.55
2023-01-19T09:55:20.464Z,9.23
2023-01-19T09:57:46.796Z,8.95
2023-01-19T10:00:19.044Z,12.73
2023-01-19T10:02:56.336Z,10.68
2023-01-19T10:05:28.807Z,12.38
2023-01-19T10:08:16.374Z,11.93
2023-01-19T10:10:47.893Z,15.55
2023-01-19T10:13:14.185Z,13.77
2023-01-19T10:16:02.023Z,11.50
2023-01-19T10:18:43.153Z,15.50
2023-01-19T10:21:18.068Z,10.85
2023-01-19T10:23:52.336Z,10.55
2023-01-19T10:26:28.041Z,9.63
2023-01-19T10:31:24.539Z,10.88
2023-01-19T10:33:52.524Z,13.52
2023-01-19T10:36:24.147Z,9.82
2023-01-19T10:38:50.901Z,14.32
2023-01-19T10:41:38.895Z,14.70
2023-01-19T10:44:05.742Z,15.45
2023-01-19T10:46:42.016Z,13.93
2023-01-19T10:49:27.959Z,12.90
2023-01-19T10:51:57.197Z,13.32
2023-01-19T10:54:25.420Z,9.82
2023-01-19T10:57:38.260Z,12.05
2023-01-19T11:00:33.923Z,13.48
2023-01-19T11:03:00.929Z,13.32
2023-01-19T11:05:32.862Z,13.63
2023-01-19T11:07:59.490Z,12.15
2023-01-19T11:10:30.330Z,8.15
2023-01-19T11:13:07.578Z,14.27
2023-01-19T11:15:58.607Z,9.20
2023-01-19T11:18:31.292Z,13.63
2023-01-19T11:21:02.162Z,8.40
2023-01-19T11:23:32.583Z,9.60
2023-01-19T11:26:01.960Z,12.02
2023-01-19T11:28:34.536Z,10.55
2023-01-19T11:31:11.062Z,13.02
2023-01-19T11:33:45.145Z,11.65
2023-01-19T11:36:33.299Z,10.88
2023-01-19T11:39:23.752Z,13.20
2023-01-19T11:41:54.912Z,9.02
2023-01-19T11:44:25.252Z,9.23
2023-01-19T11:46:58.528Z,11.40
2023-01-19T11:49:32.962Z,10.07
2023-01-19T11:52:17.826Z,13.85
2023-01-19T11:54:56.124Z,14.80
2023-01-19T11:57:22.758Z,12.75
2023-01-19T11:59:51.969Z,10.77
2023-01-19T12:02:31.980Z,10.77
2023-01-19T12:05:04.013Z,8.02
2023-01-19T12:07:34.813Z,10.65
2023-01-19T12:10:29.714Z,9.48
2023-01-19T12:12:57.306Z,8.93
2023-01-19T12:15:41.863Z,16.98
2023-01-19T12:18:17.830Z,12.73
2023-01-19T12:20:49.657Z,8.15
2023-01-19T12:23:22.454Z,14.32
2023-01-19T12:25:58.171Z,9.45
2023-01-19T12:28:31.436Z,12.07
2023-01-19T12:31:00.262Z,12.73
2023-01-19T12:33:26.602Z,20.85
2023-01-19T12:36:00.902Z,15.15
2023-01-19T12:38:48.865Z,12.48
2023-01-19T12:41:22.525Z,11.40
2023-01-19T12:44:11.082Z,15.40
2023-01-19T12:47:06.417Z,15.85
2023-01-19T12:49:38.691Z,25.05
2023-01-19T12:52:17.340Z,8.32
2023-01-19T12:54:58.260Z,9.40
2023-01-19T12:57:38.971Z,13.15
2023-01-19T13:00:25.289Z,12.55
2023-01-19T13:05:24.386Z,13.07
2023-01-19T13:08:03.126Z,16.27
2023-01-19T13:11:00.698Z,10.35
2023-01-19T13:13:36.835Z,11.20
2023-01-19T13:16:18.496Z,12.40
2023-01-19T13:18:58.690Z,13.95
2023-01-19T13:21:49.505Z,12.77
2023-01-19T13:24:19.210Z,11.13
2023-01-19T13:26:51.469Z,15.05
2023-01-19T13:29:32.983Z,10.27
2023-01-19T13:32:05.138Z,12.10
2023-01-19T13:34:42.346Z,8.07
2023-01-19T13:37:18.599Z,9.60
2023-01-19T13:40:01.221Z,7.70
2023-01-19T13:42:35.955Z,9.50
2023-01-19T13:45:15.583Z,10.30
2023-01-19T13:47:46.696Z,14.40
2023-01-19T13:50:34.242Z,11.88
2023-01-19T13:53:01.387Z,10.93
2023-01-19T13:55:30.126Z,9.05
2023-01-19T13:57:56.821Z,12.70
2023-01-19T14:00:25.869Z,10.07
2023-01-19T14:03:02.536Z,12.95
2023-01-19T14:05:37.613Z,12.82
2023-01-19T14:08:13.000Z,12.73
2023-01-19T14:11:01.186Z,10.55
2023-01-19T14:13:43.129Z,11.88
2023-01-19T14:16:17.193Z,10.93
2023-01-19T14:18:43.778Z,11.75
2023-01-19T14:21:14.744Z,13.93
2023-01-19T14:24:10.435Z,13.88
2023-01-19T14:26:48.949Z,15.30
2023-01-19T14:29:24.416Z,13.77
2023-01-19T14:31:59.945Z,14.18
2023-01-19T14:34:43.196Z,14.60
2023-01-19T14:37:38.075Z,15.95
2023-01-19T14:40:14.760Z,18.20
2023-01-19T14:42:54.687Z,17.05
2023-01-19T14:45:30.239Z,18.80
2023-01-19T14:48:05.004Z,19.33
2023-01-19T14:50:37.541Z,16.50
2023-01-19T14:53:27.872Z,14.73
2023-01-19T14:55:59.210Z,13.85
2023-01-19T14:58:29.507Z,15.15
2023-01-19T15:00:56.271Z,15.18
2023-01-19T15:03:26.848Z,15.98
2023-01-19T15:06:04.296Z,16.23
2023-01-19T15:08:34.129Z,15.60
2023-01-19T15:11:10.780Z,18.48
2023-01-19T15:13:38.991Z,17.58
2023-01-19T15:16:06.714Z,17.40
2023-01-19T15:18:33.247Z,21.63
2023-01-19T15:21:03.010Z,20.58
2023-01-19T15:23:32.872Z,19.38
2023-01-19T15:26:01.319Z,14.93
2023-01-19T15:28:28.106Z,16.10
2023-01-19T15:30:54.591Z,13.65
2023-01-19T15:33:26.795Z,19.98
2023-01-19T15:35:53.639Z,15.63
2023-01-19T15:38:20.079Z,18.80
2023-01-19T15:40:51.229Z,21.35
2023-01-19T15:43:17.971Z,16.67
2023-01-19T15:45:59.832Z,17.23
2023-01-19T15:48:26.221Z,19.42
2023-01-19T15:50:52.638Z,21.88
2023-01-19T15:53:21.064Z,18.40
2023-01-19T15:55:52.584Z,21.27
2023-01-19T15:58:20.548Z,16.75
2023-01-19T16:00:55.059Z,17.58
2023-01-19T16:03:21.802Z,17.23
2023-01-19T16:05:48.643Z,21.38
2023-01-19T16:08:15.175Z,18.02
2023-01-19T16:10:42.169Z,22.35
2023-01-19T16:13:10.367Z,23.10
2023-01-19T16:15:38.053Z,24.52
2023-01-19T16:18:05.544Z,22.00
2023-01-19T16:20:32.081Z,24.15
2023-01-19T16:23:09.706Z,22.55
2023-01-19T16:25:40.516Z,23.63
2023-01-19T16:28:08.148Z,25.38
2023-01-19T16:30:34.523Z,28.10
2023-01-19T16:33:00.935Z,23.55
2023-01-19T16:35:27.272Z,21.42
2023-01-19T16:37:53.720Z,20.17
2023-01-19T16:40:20.353Z,22.88
2023-01-19T16:42:47.273Z,26.75
2023-01-19T16:45:13.813Z,24.25
2023-01-19T16:47:40.299Z,19.20
2023-01-19T16:50:09.938Z,24.75
2023-01-19T16:52:36.504Z,28.95
2023-01-19T16:55:06.914Z,19.77
2023-01-19T16:57:33.277Z,27.25
2023-01-19T16:59:59.825Z,22.05
2023-01-19T17:02:26.255Z,24.85
2023-01-19T17:04:52.652Z,24.05
2023-01-19T17:07:19.502Z,25.35
2023-01-19T17:09:45.908Z,28.50
2023-01-19T17:12:12.600Z,26.70
2023-01-19T17:14:39.442Z,32.70
2023-01-19T17:17:09.153Z,24.50
2023-01-19T17:19:35.787Z,27.30
2023-01-19T17:22:02.268Z,31.27
2023-01-19T17:24:28.738Z,25.88
2023-01-19T17:26:55.066Z,30.55
2023-01-19T17:29:21.540Z,24.05
2023-01-19T17:31:53.056Z,31.58
2023-01-19T17:34:19.394Z,26.20
2023-01-19T17:36:45.820Z,26.90
2023-01-19T17:39:14.937Z,25.08
2023-01-19T17:41:41.476Z,26.90
2023-01-19T17:44:08.004Z,27.25
2023-01-19T17:46:37.131Z,28.20
2023-01-19T17:49:06.218Z,75.22
2023-01-19T17:51:33.356Z,36.70
2023-01-19T17:53:59.878Z,31.40
2023-01-19T17:56:30.238Z,29.05
2023-01-19T17:58:58.605Z,29.65
2023-01-19T18:01:27.702Z,26.80
2023-01-19T18:03:54.516Z,29.33
2023-01-19T18:06:21.052Z,25.58
2023-01-19T18:08:48.636Z,30.48
2023-01-19T18:11:18.184Z,26.45
2023-01-19T18:13:46.190Z,27.25
2023-01-19T18:16:17.256Z,26.67
2023-01-19T18:18:44.169Z,30.00
2023-01-19T18:21:13.056Z,27.48
2023-01-19T18:23:39.912Z,25.90
2023-01-19T18:26:09.250Z,31.05
2023-01-19T18:28:36.458Z,28.52
2023-01-19T18:31:07.146Z,26.85
2023-01-19T18:33:34.087Z,26.60
2023-01-19T18:36:00.472Z,26.70
2023-01-19T18:38:27.123Z,28.92
2023-01-19T18:41:01.649Z,32.83
2023-01-19T18:43:28.168Z,26.38
2023-01-19T18:45:54.546Z,29.10
2023-01-19T18:48:20.965Z,27.92
2023-01-19T18:50:47.387Z,28.00
2023-01-19T18:53:13.811Z,28.67
2023-01-19T18:55:40.149Z,29.85
2023-01-19T18:58:07.097Z,33.65
2023-01-19T19:00:33.574Z,36.20
2023-01-19T19:02:59.979Z,32.53
2023-01-19T19:05:26.369Z,28.77
2023-01-19T19:07:52.830Z,32.15
2023-01-19T19:10:19.230Z,36.35
2023-01-19T19:12:45.641Z,34.40
2023-01-19T19:15:12.071Z,27.85
2023-01-19T19:17:38.395Z,43.50
2023-01-19T19:20:05.210Z,31.85
2023-01-19T19:22:31.687Z,34.63
2023-01-19T19:24:58.049Z,31.17
2023-01-19T19:27:24.408Z,35.38
2023-01-19T19:29:50.797Z,45.70
2023-01-19T19:32:20.426Z,30.95
2023-01-19T19:34:52.670Z,28.55
2023-01-19T19:37:19.897Z,40.60
2023-01-19T19:39:47.763Z,35.85
2023-01-19T19:42:14.194Z,31.70
2023-01-19T19:44:40.616Z,36.53
2023-01-19T19:47:07.067Z,34.20
2023-01-19T19:49:33.692Z,31.10
2023-01-19T19:52:00.093Z,28.73
2023-01-19T19:54:26.551Z,33.30
2023-01-19T19:56:53.607Z,33.35
2023-01-19T19:59:20.064Z,32.03
2023-01-19T20:01:47.134Z,33.80
2023-01-19T20:04:14.345Z,30.02
2023-01-19T20:06:44.576Z,29.25
2023-01-19T20:09:15.727Z,33.25
2023-01-19T20:11:44.291Z,34.75
2023-01-19T20:14:12.224Z,29.42
2023-01-19T20:16:39.535Z,29.92
2023-01-19T20:19:06.468Z,31.70
2023-01-19T20:21:35.828Z,39.33
2023-01-19T20:24:08.878Z,32.55
2023-01-19T20:26:38.971Z,29.52
2023-01-19T20:29:06.876Z,30.65
2023-01-19T20:31:36.714Z,34.28
2023-01-19T20:34:05.548Z,31.42
2023-01-19T20:36:31.996Z,33.22
2023-01-19T20:38:58.789Z,39.58
2023-01-19T20:41:26.546Z,32.13
2023-01-19T20:43:53.359Z,36.13
2023-01-19T20:46:20.297Z,33.13
2023-01-19T20:48:50.729Z,34.05
2023-01-19T20:51:18.696Z,31.02
2023-01-19T20:53:45.115Z,32.53
2023-01-19T20:56:13.715Z,34.90
2023-01-19T20:58:40.951Z,30.75
2023-01-19T21:01:16.744Z,32.05
2023-01-19T21:03:43.567Z,40.22
2023-01-19T21:06:10.592Z,35.90
2023-01-19T21:08:37.243Z,32.10
2023-01-19T21:11:20.939Z,32.75
2023-01-19T21:13:48.791Z,31.30
2023-01-19T21:16:15.546Z,33.42
2023-01-19T21:18:41.926Z,30.50
2023-01-19T21:21:15.003Z,33.92
2023-01-19T21:23:47.508Z,37.20
2023-01-19T21:26:14.666Z,32.45
2023-01-19T21:28:41.693Z,35.97
2023-01-19T21:31:13.813Z,36.83
2023-01-19T21:33:42.241Z,31.52
2023-01-19T21:36:10.448Z,32.80
2023-01-19T21:38:38.075Z,34.10
2023-01-19T21:41:10.970Z,32.67
2023-01-19T21:43:38.923Z,35.67
2023-01-19T21:46:32.109Z,32.13
2023-01-19T21:49:00.894Z,31.58
2023-01-19T21:51:28.868Z,29.23
2023-01-19T21:53:59.386Z,31.35
2023-01-19T21:56:27.441Z,38.38
2023-01-19T21:58:56.058Z,33.40
2023-01-19T22:01:23.679Z,34.10
2023-01-19T22:03:54.756Z,30.58
2023-01-19T22:06:21.821Z,32.65
2023-01-19T22:08:48.248Z,34.72
2023-01-19T22:11:18.243Z,35.58
2023-01-19T22:13:45.092Z,34.92
2023-01-19T22:16:14.403Z,40.45
2023-01-19T22:18:43.706Z,38.40
2023-01-19T22:21:19.160Z,39.00
2023-01-19T22:23:49.767Z,33.40
2023-01-19T22:26:16.513Z,35.20
2023-01-19T22:28:43.046Z,37.03
2023-01-19T22:31:14.472Z,38.22
2023-01-19T22:33:41.358Z,40.45
2023-01-19T22:36:21.709Z,37.38
2023-01-19T22:38:54.900Z,38.95
2023-01-19T22:41:23.792Z,36.20
2023-01-19T22:43:52.585Z,39.30
2023-01-19T22:46:25.002Z,40.72
2023-01-19T22:48:52.618Z,36.75
2023-01-19T22:51:20.228Z,41.13
2023-01-19T22:53:47.017Z,39.92
2023-01-19T22:56:19.495Z,38.88
2023-01-19T22:58:46.960Z,44.20
2023-01-19T23:01:16.423Z,38.15
2023-01-19T23:03:43.421Z,40.67
2023-01-19T23:06:12.907Z,39.17
2023-01-19T23:08:40.484Z,41.95
2023-01-19T23:11:21.867Z,39.70
2023-01-19T23:13:49.352Z,39.30
2023-01-19T23:16:15.860Z,44.13
2023-01-19T23:18:43.011Z,38.92
2023-01-19T23:21:15.632Z,43.05
2023-01-19T23:23:43.460Z,44.35
2023-01-19T23:26:21.665Z,46.25
2023-01-19T23:28:56.728Z,41.97
2023-01-19T23:31:28.795Z,41.17
2023-01-19T23:33:57.377Z,38.75
2023-01-19T23:36:26.291Z,39.20
2023-01-19T23:38:55.252Z,45.47
2023-01-19T23:41:22.692Z,44.80
2023-01-19T23:43:49.427Z,43.08
2023-01-19T23:46:17.731Z,40.95
2023-01-19T23:48:44.671Z,40.83
2023-01-19T23:51:15.178Z,42.45
2023-01-19T23:53:42.140Z,43.67
2023-01-19T23:56:17.557Z,41.83
2023-01-19T23:58:45.524Z,37.92
